Time;durP1;ratioP1;P1;durP2;ratioP2;P2;SDS_P1;SDS_P2;PMS_P1;PMS_P2;Temp;Humidity;BMP_temperature;BMP_pressure;BME280_temperature;BME280_humidity;BME280_pressure;Samples;Min_cycle;Max_cycle;Signal;HPM_P1;HPM_P2
2022/05/16 00:01:11;;;;;;;10.73;4.47;;;13.20;99.90;;;;;;5025542;28;20452;-71
2022/05/16 00:03:37;;;;;;;10.38;4.57;;;13.10;99.90;;;;;;5030846;28;20094;-71
2022/05/16 00:06:03;;;;;;;12.70;4.82;;;13.10;99.90;;;;;;5014384;28;20455;-71
2022/05/16 00:08:28;;;;;;;11.70;4.57;;;13.10;99.90;;;;;;5026421;28;20053;-71
2022/05/16 00:10:56;;;;;;;9.25;4.57;;;13.10;99.90;;;;;;5024521;28;20047;-71
2022/05/16 00:13:22;;;;;;;9.43;4.40;;;13.10;99.90;;;;;;5023619;28;20048;-71
2022/05/16 00:15:47;;;;;;;13.00;4.82;;;13.00;99.90;;;;;;5026645;28;20084;-70
2022/05/16 00:18:13;;;;;;;10.10;4.28;;;13.10;99.90;;;;;;5030084;28;20073;-70
2022/05/16 00:20:39;;;;;;;11.70;4.25;;;13.00;99.90;;;;;;5025850;28;20040;-70
2022/05/16 00:23:04;;;;;;;11.57;4.70;;;13.00;99.90;;;;;;5024647;28;20076;-70
2022/05/16 00:25:30;;;;;;;11.40;4.05;;;13.10;99.90;;;;;;5025539;28;20073;-71
2022/05/16 00:27:56;;;;;;;9.77;4.45;;;13.00;99.90;;;;;;5021636;28;20435;-71
2022/05/16 00:30:22;;;;;;;10.48;4.25;;;13.00;99.90;;;;;;5029241;28;20033;-71
2022/05/16 00:32:49;;;;;;;12.35;4.40;;;13.00;99.90;;;;;;5018775;28;20547;-71
2022/05/16 00:35:18;;;;;;;10.85;4.70;;;13.00;99.90;;;;;;5041155;28;20041;-71
2022/05/16 00:37:43;;;;;;;9.63;4.32;;;12.90;99.90;;;;;;5019848;28;20042;-71
2022/05/16 00:40:11;;;;;;;13.80;4.40;;;12.90;99.90;;;;;;5031343;28;20452;-71
2022/05/16 00:42:37;;;;;;;11.85;5.15;;;13.00;99.90;;;;;;5020642;28;20129;-71
2022/05/16 00:45:05;;;;;;;10.48;4.13;;;12.90;99.90;;;;;;4997821;28;20084;-71
2022/05/16 00:47:30;;;;;;;9.23;4.20;;;12.90;99.90;;;;;;5020659;28;20045;-71
2022/05/16 00:49:56;;;;;;;10.35;4.38;;;12.90;99.90;;;;;;5017826;28;20477;-71
2022/05/16 00:52:29;;;;;;;9.10;4.50;;;12.90;99.90;;;;;;5021317;28;20095;-71
2022/05/16 00:54:56;;;;;;;10.77;4.22;;;12.90;99.90;;;;;;5018976;28;20048;-71
2022/05/16 00:57:37;;;;;;;11.90;4.55;;;12.90;99.90;;;;;;5012731;28;20065;-71
2022/05/16 01:00:17;;;;;;;10.38;4.40;;;12.90;99.90;;;;;;5030810;28;20039;-71
2022/05/16 01:05:32;;;;;;;12.25;4.30;;;12.90;99.90;;;;;;5024243;28;20388;-71
2022/05/16 01:08:07;;;;;;;11.63;4.00;;;12.90;99.90;;;;;;5041926;28;20131;-70
2022/05/16 01:10:34;;;;;;;10.88;3.78;;;12.90;99.90;;;;;;5023686;28;20060;-70
2022/05/16 01:13:03;;;;;;;9.13;4.07;;;12.90;99.90;;;;;;5025805;28;20049;-70
2022/05/16 01:15:33;;;;;;;12.50;4.63;;;12.90;99.90;;;;;;5043136;28;20127;-70
2022/05/16 01:18:00;;;;;;;10.52;4.40;;;12.90;99.90;;;;;;5027111;28;20110;-70
2022/05/16 01:20:38;;;;;;;8.52;3.70;;;12.80;99.90;;;;;;5010172;28;20154;-70
2022/05/16 01:23:04;;;;;;;10.73;3.95;;;12.90;99.90;;;;;;5028964;28;20384;-70
2022/05/16 01:25:30;;;;;;;9.75;4.30;;;12.90;99.90;;;;;;5027087;28;20116;-70
2022/05/16 01:28:01;;;;;;;10.05;3.97;;;12.90;99.90;;;;;;5045133;28;20060;-70
2022/05/16 01:30:36;;;;;;;12.65;4.15;;;12.90;99.90;;;;;;5032634;28;20409;-70
2022/05/16 01:33:03;;;;;;;11.75;4.13;;;12.90;99.90;;;;;;5033640;28;20052;-70
2022/05/16 01:35:30;;;;;;;12.98;4.13;;;12.90;99.90;;;;;;5020838;28;20041;-70
2022/05/16 01:40:41;;;;;;;9.18;3.85;;;12.90;99.90;;;;;;5025772;28;20045;-70
2022/05/16 01:43:09;;;;;;;11.20;4.45;;;12.90;99.90;;;;;;5030147;28;20152;-70
2022/05/16 01:45:36;;;;;;;12.95;4.13;;;12.80;99.90;;;;;;5027160;28;20388;-70
2022/05/16 01:48:02;;;;;;;11.20;4.13;;;12.80;99.90;;;;;;5033844;28;20613;-70
2022/05/16 01:50:29;;;;;;;9.23;3.88;;;12.80;99.90;;;;;;5031251;28;20125;-70
2022/05/16 01:52:55;;;;;;;8.55;4.20;;;12.80;99.90;;;;;;5028070;28;20037;-70
2022/05/16 01:55:21;;;;;;;10.32;3.97;;;12.80;99.90;;;;;;5014861;28;20367;-70
2022/05/16 01:57:47;;;;;;;8.82;4.10;;;12.80;99.90;;;;;;5013476;28;20042;-70
2022/05/16 02:00:15;;;;;;;8.90;3.35;;;12.90;99.90;;;;;;5030083;28;20040;-70
2022/05/16 02:02:42;;;;;;;8.07;3.78;;;12.80;99.90;;;;;;5029542;28;20049;-70
2022/05/16 02:05:13;;;;;;;8.60;3.70;;;12.80;99.90;;;;;;5044055;28;20044;-70
2022/05/16 02:07:39;;;;;;;9.00;3.88;;;12.80;99.90;;;;;;5024852;28;20134;-70
2022/05/16 02:10:07;;;;;;;9.32;3.75;;;12.80;99.90;;;;;;5011173;28;20069;-70
2022/05/16 02:12:34;;;;;;;7.05;3.90;;;12.80;99.90;;;;;;5029207;28;20045;-70
2022/05/16 02:15:00;;;;;;;7.60;3.67;;;12.70;99.90;;;;;;5027775;28;20478;-70
2022/05/16 02:17:26;;;;;;;11.05;3.67;;;12.70;99.90;;;;;;5026063;28;20042;-70
2022/05/16 02:19:51;;;;;;;8.27;3.40;;;12.70;99.90;;;;;;5026528;28;20112;-70
2022/05/16 02:25:01;;;;;;;8.35;3.75;;;12.70;99.90;;;;;;5024225;28;20041;-70
2022/05/16 02:27:27;;;;;;;7.70;3.17;;;12.70;99.90;;;;;;5031194;28;20370;-70
2022/05/16 02:29:53;;;;;;;11.60;3.63;;;12.70;99.90;;;;;;5027055;28;20124;-70
2022/05/16 02:32:19;;;;;;;10.05;3.60;;;12.60;99.90;;;;;;5028030;28;20042;-70
2022/05/16 02:34:45;;;;;;;9.88;3.60;;;12.70;99.90;;;;;;5021182;28;20040;-69
2022/05/16 02:37:11;;;;;;;6.10;3.42;;;12.70;99.90;;;;;;5026221;28;20045;-69
2022/05/16 02:39:37;;;;;;;8.88;3.03;;;12.70;99.90;;;;;;5003988;28;20052;-69
2022/05/16 02:42:04;;;;;;;7.85;2.88;;;12.60;99.90;;;;;;5044416;28;20037;-69
2022/05/16 02:44:30;;;;;;;7.15;2.88;;;12.60;99.90;;;;;;5027747;28;20137;-70
2022/05/16 02:46:56;;;;;;;9.93;3.38;;;12.60;99.90;;;;;;5029576;28;20067;-69
2022/05/16 02:49:21;;;;;;;9.32;3.10;;;12.60;99.90;;;;;;5044190;28;20037;-69
2022/05/16 02:51:48;;;;;;;9.38;3.05;;;12.60;99.90;;;;;;5031199;28;20106;-70
2022/05/16 02:54:13;;;;;;;7.40;2.92;;;12.60;99.90;;;;;;5008318;28;20060;-70
2022/05/16 02:56:39;;;;;;;6.78;2.63;;;12.60;99.90;;;;;;5014968;28;20542;-70
2022/05/16 02:59:05;;;;;;;8.85;2.78;;;12.60;99.90;;;;;;5023426;28;20029;-70
2022/05/16 03:01:34;;;;;;;8.43;2.88;;;12.60;99.90;;;;;;5031423;28;20033;-69
2022/05/16 03:04:00;;;;;;;9.30;3.13;;;12.60;99.90;;;;;;5027337;28;20033;-70
2022/05/16 03:06:26;;;;;;;9.85;3.10;;;12.60;99.90;;;;;;5023770;28;20487;-69
2022/05/16 03:08:51;;;;;;;9.30;3.80;;;12.60;99.90;;;;;;5024681;28;20045;-69
2022/05/16 03:11:17;;;;;;;10.77;2.50;;;12.50;99.90;;;;;;5023493;28;20536;-69
2022/05/16 03:13:43;;;;;;;5.47;2.70;;;12.60;99.90;;;;;;5019789;28;20175;-69
2022/05/16 03:16:09;;;;;;;8.70;3.25;;;12.50;99.90;;;;;;5012550;28;20049;-69
2022/05/16 03:18:34;;;;;;;8.35;3.13;;;12.50;99.90;;;;;;5020193;28;20033;-69
2022/05/16 03:21:00;;;;;;;8.15;3.08;;;12.50;99.90;;;;;;5020621;28;20033;-69
2022/05/16 03:23:26;;;;;;;10.43;2.92;;;12.50;99.90;;;;;;5019528;28;20049;-69
2022/05/16 03:25:53;;;;;;;10.38;2.92;;;12.50;99.90;;;;;;5050545;28;20037;-69
2022/05/16 03:28:18;;;;;;;10.52;3.17;;;12.40;99.90;;;;;;5020426;28;20497;-68
2022/05/16 03:30:45;;;;;;;9.30;2.90;;;12.40;99.90;;;;;;5019327;28;20045;-69
2022/05/16 03:33:10;;;;;;;6.05;2.97;;;12.40;99.90;;;;;;5021918;28;20638;-69
2022/05/16 03:35:36;;;;;;;11.52;3.38;;;12.40;99.90;;;;;;5028282;28;20107;-69
2022/05/16 03:38:02;;;;;;;11.95;3.55;;;12.40;99.90;;;;;;5021640;28;20041;-69
2022/05/16 03:40:45;;;;;;;6.85;2.70;;;12.40;99.90;;;;;;5020113;28;20057;-69
2022/05/16 03:43:13;;;;;;;7.20;2.85;;;12.40;99.90;;;;;;5023375;28;20045;-69
2022/05/16 03:45:39;;;;;;;8.68;2.45;;;12.40;99.90;;;;;;5025195;28;20482;-69
2022/05/16 03:48:05;;;;;;;12.23;3.17;;;12.40;99.90;;;;;;5042607;28;20052;-69
2022/05/16 03:50:32;;;;;;;8.95;3.00;;;12.30;99.90;;;;;;5029259;28;20060;-69
2022/05/16 03:52:59;;;;;;;7.70;2.83;;;12.30;99.90;;;;;;5025054;28;20226;-69
2022/05/16 03:55:27;;;;;;;7.95;2.95;;;12.30;99.90;;;;;;5009914;28;20095;-69
2022/05/16 03:57:52;;;;;;;9.35;3.58;;;12.30;99.90;;;;;;5029385;28;20055;-69
2022/05/16 04:00:19;;;;;;;8.35;2.72;;;12.30;99.90;;;;;;5022165;28;20045;-69
2022/05/16 04:02:45;;;;;;;9.02;3.00;;;12.30;99.90;;;;;;5044023;28;20514;-69
2022/05/16 04:05:15;;;;;;;7.57;2.72;;;12.30;99.90;;;;;;5039338;28;20040;-69
2022/05/16 04:07:41;;;;;;;9.60;3.40;;;12.30;99.90;;;;;;5040280;28;20033;-69
2022/05/16 04:10:08;;;;;;;8.15;2.53;;;12.40;99.90;;;;;;5024667;28;20045;-69
2022/05/16 04:12:34;;;;;;;8.60;2.72;;;12.40;99.90;;;;;;5018418;28;20033;-69
2022/05/16 04:15:00;;;;;;;8.52;2.78;;;12.40;99.90;;;;;;5025029;28;20478;-69
2022/05/16 04:17:26;;;;;;;7.60;2.70;;;12.40;99.90;;;;;;5009574;28;20099;-69
2022/05/16 04:19:52;;;;;;;8.93;2.50;;;12.40;99.90;;;;;;5022426;28;20039;-69
2022/05/16 04:22:18;;;;;;;9.75;3.13;;;12.40;99.90;;;;;;5024315;28;20049;-69
2022/05/16 04:24:44;;;;;;;8.45;2.47;;;12.40;99.90;;;;;;5030191;28;20040;-69
2022/05/16 04:27:10;;;;;;;4.97;2.60;;;12.50;99.90;;;;;;5026735;28;20095;-69
2022/05/16 04:29:35;;;;;;;6.85;2.80;;;12.50;99.90;;;;;;5045217;28;20045;-70
2022/05/16 04:32:01;;;;;;;10.52;3.13;;;12.50;99.90;;;;;;5042719;28;20037;-70
2022/05/16 04:34:27;;;;;;;6.63;2.63;;;12.50;99.90;;;;;;5026997;28;20111;-70
2022/05/16 04:36:52;;;;;;;8.30;2.80;;;12.50;99.90;;;;;;5030496;28;21500;-69
2022/05/16 04:39:18;;;;;;;10.15;2.75;;;12.50;99.90;;;;;;5028675;28;20052;-70
2022/05/16 04:44:28;;;;;;;10.70;4.43;;;12.50;99.90;;;;;;5024943;28;20075;-70
2022/05/16 04:46:53;;;;;;;6.50;2.88;;;12.50;99.90;;;;;;5008735;28;20045;-70
2022/05/16 04:49:19;;;;;;;8.63;3.08;;;12.60;99.90;;;;;;5014178;28;20550;-69
2022/05/16 04:51:45;;;;;;;9.00;3.00;;;12.60;99.90;;;;;;5025469;28;20043;-69
2022/05/16 04:54:11;;;;;;;8.40;2.80;;;12.60;99.90;;;;;;5027779;28;20047;-69
2022/05/16 04:56:37;;;;;;;8.48;2.88;;;12.60;99.90;;;;;;5028246;28;20110;-69
2022/05/16 04:59:03;;;;;;;9.52;2.85;;;12.60;99.90;;;;;;5046350;28;20041;-69
2022/05/16 05:01:28;;;;;;;6.97;2.22;;;12.70;99.90;;;;;;5025009;28;20052;-69
2022/05/16 05:03:54;;;;;;;9.05;2.70;;;12.70;99.90;;;;;;5013395;28;20078;-69
2022/05/16 05:06:21;;;;;;;9.10;2.75;;;12.90;99.90;;;;;;5043246;28;20040;-69
2022/05/16 05:08:47;;;;;;;10.38;2.40;;;13.00;99.90;;;;;;5025500;28;20073;-69
2022/05/16 05:16:41;;;;;;;6.15;2.45;;;13.70;99.90;;;;;;5025349;28;20061;-70
2022/05/16 05:19:09;;;;;;;6.68;3.20;;;13.70;99.90;;;;;;5046810;28;20041;-69
2022/05/16 05:21:35;;;;;;;7.43;2.60;;;13.70;99.90;;;;;;5021847;28;20045;-69
2022/05/16 05:24:01;;;;;;;5.97;2.20;;;13.80;99.90;;;;;;5027290;28;20037;-69
2022/05/16 05:26:27;;;;;;;9.95;2.60;;;13.80;99.90;;;;;;5027686;28;20143;-70
2022/05/16 05:28:53;;;;;;;9.35;2.53;;;13.90;99.90;;;;;;5020523;28;20124;-69
2022/05/16 05:31:20;;;;;;;6.18;2.92;;;14.00;99.90;;;;;;5024987;28;20050;-69
2022/05/16 05:33:46;;;;;;;9.05;2.42;;;14.00;99.90;;;;;;5027302;28;20067;-69
2022/05/16 05:36:12;;;;;;;7.35;3.05;;;14.00;99.90;;;;;;5027169;28;20046;-69
2022/05/16 05:38:38;;;;;;;8.27;2.50;;;14.20;99.90;;;;;;5023711;28;20134;-71
2022/05/16 05:41:06;;;;;;;7.07;2.42;;;14.30;99.90;;;;;;5026199;28;20085;-69
2022/05/16 05:43:31;;;;;;;8.55;2.70;;;14.30;99.90;;;;;;5023280;28;20471;-69
2022/05/16 05:45:57;;;;;;;10.30;2.53;;;14.50;99.90;;;;;;5024998;28;20125;-69
2022/05/16 05:48:24;;;;;;;10.07;2.60;;;14.60;99.90;;;;;;5023579;28;20120;-69
2022/05/16 05:50:49;;;;;;;6.65;2.38;;;14.70;99.80;;;;;;5031598;28;20037;-70
2022/05/16 05:53:15;;;;;;;8.32;3.13;;;14.90;99.30;;;;;;5020530;28;20087;-70
2022/05/16 05:55:41;;;;;;;10.90;2.88;;;15.00;98.70;;;;;;5018932;28;20034;-69
2022/05/16 05:58:07;;;;;;;8.07;2.33;;;15.10;98.90;;;;;;5023868;28;20076;-70
2022/05/16 06:00:32;;;;;;;6.88;2.45;;;15.20;98.50;;;;;;5021375;28;20044;-69
2022/05/16 06:03:00;;;;;;;9.20;2.70;;;15.30;98.00;;;;;;5039267;28;20087;-69
2022/05/16 06:05:26;;;;;;;6.50;2.30;;;15.30;98.00;;;;;;5023113;28;20103;-69
2022/05/16 06:07:52;;;;;;;7.32;2.30;;;15.30;97.80;;;;;;5047387;28;20084;-70
2022/05/16 06:10:18;;;;;;;6.97;2.80;;;15.30;97.70;;;;;;5027288;28;20095;-70
2022/05/16 06:12:44;;;;;;;7.68;3.22;;;15.30;97.70;;;;;;5029740;28;20049;-69
2022/05/16 06:15:12;;;;;;;5.78;2.45;;;15.40;97.20;;;;;;5027222;28;20669;-69
2022/05/16 06:17:38;;;;;;;7.78;2.53;;;15.50;97.40;;;;;;5029510;28;20061;-69
2022/05/16 06:20:07;;;;;;;9.07;2.90;;;15.60;97.40;;;;;;5023579;28;20106;-69
2022/05/16 06:22:37;;;;;;;7.25;2.70;;;15.70;97.40;;;;;;5026913;28;20470;-69
2022/05/16 06:27:50;;;;;;;9.57;2.70;;;15.80;96.60;;;;;;5026031;28;20057;-70
2022/05/16 06:30:19;;;;;;;10.43;3.03;;;16.00;96.50;;;;;;5025910;28;20056;-70
2022/05/16 06:32:48;;;;;;;7.60;2.95;;;16.10;96.20;;;;;;5027162;28;20068;-70
2022/05/16 06:35:14;;;;;;;8.35;2.78;;;16.20;96.30;;;;;;5025009;28;20489;-68
2022/05/16 06:37:40;;;;;;;5.75;2.05;;;16.30;96.20;;;;;;5029042;28;20381;-69
2022/05/16 06:40:06;;;;;;;8.25;2.60;;;16.40;95.70;;;;;;5041992;28;20056;-70
2022/05/16 06:42:32;;;;;;;8.38;3.05;;;16.50;95.00;;;;;;5028469;28;20045;-69
2022/05/16 06:44:58;;;;;;;6.93;3.30;;;16.60;95.00;;;;;;5024820;28;20064;-68
2022/05/16 06:47:24;;;;;;;8.07;2.83;;;16.70;95.20;;;;;;5027056;28;20057;-70
2022/05/16 06:49:51;;;;;;;11.20;2.25;;;16.90;94.50;;;;;;5026516;28;20120;-69
2022/05/16 06:52:18;;;;;;;11.45;2.58;;;17.00;94.00;;;;;;5023514;28;20127;-69
2022/05/16 06:54:44;;;;;;;7.30;2.65;;;17.00;94.20;;;;;;5025279;28;20053;-69
2022/05/16 06:57:10;;;;;;;10.68;2.70;;;17.10;93.70;;;;;;5033203;28;20033;-69
2022/05/16 06:59:36;;;;;;;10.27;2.72;;;17.30;93.40;;;;;;5024496;28;20108;-69
2022/05/16 07:02:03;;;;;;;10.13;2.83;;;17.50;93.20;;;;;;5040591;28;20033;-69
2022/05/16 07:04:28;;;;;;;9.55;2.40;;;17.70;92.80;;;;;;5025657;28;20052;-70
2022/05/16 07:06:54;;;;;;;7.65;2.67;;;17.90;92.50;;;;;;5030663;28;20069;-69
2022/05/16 07:09:20;;;;;;;8.38;2.70;;;18.20;91.70;;;;;;5025979;28;20053;-70
2022/05/16 07:11:45;;;;;;;9.45;2.33;;;18.30;91.70;;;;;;5024131;28;20049;-70
2022/05/16 07:14:11;;;;;;;8.52;2.58;;;18.60;90.90;;;;;;5025391;28;20048;-70
2022/05/16 07:16:38;;;;;;;8.50;2.20;;;18.80;90.30;;;;;;5026119;28;20107;-71
2022/05/16 07:19:04;;;;;;;9.50;2.55;;;19.00;88.40;;;;;;5047178;28;20052;-71
2022/05/16 07:21:30;;;;;;;9.25;2.40;;;19.10;86.60;;;;;;5027603;28;20045;-70
2022/05/16 07:23:55;;;;;;;8.07;2.38;;;19.30;86.40;;;;;;5028913;28;20422;-71
2022/05/16 07:29:05;;;;;;;10.02;2.83;;;19.90;85.10;;;;;;5026881;28;20106;-70
2022/05/16 07:31:31;;;;;;;8.35;2.40;;;20.40;81.60;;;;;;5023670;28;20478;-71
2022/05/16 07:33:58;;;;;;;10.35;3.20;;;20.60;79.20;;;;;;5025204;28;20069;-69
2022/05/16 07:36:24;;;;;;;7.82;2.70;;;20.80;77.40;;;;;;5042599;28;20037;-70
2022/05/16 07:38:50;;;;;;;6.85;2.17;;;21.00;74.30;;;;;;5043929;28;20124;-70
2022/05/16 07:41:17;;;;;;;5.32;2.00;;;21.00;75.00;;;;;;5021209;28;20108;-71
2022/05/16 07:43:42;;;;;;;6.95;2.08;;;21.00;73.80;;;;;;5022890;28;20049;-71
2022/05/16 07:46:09;;;;;;;4.32;2.00;;;21.00;74.10;;;;;;5026667;28;20045;-71
2022/05/16 07:48:34;;;;;;;6.55;2.30;;;21.00;73.70;;;;;;5028573;28;20064;-71
2022/05/16 07:51:01;;;;;;;7.80;2.60;;;21.10;73.20;;;;;;5027768;28;20041;-70
2022/05/16 07:53:27;;;;;;;5.97;2.65;;;21.20;72.00;;;;;;5018318;28;20115;-70
2022/05/16 07:55:55;;;;;;;10.15;2.20;;;21.30;71.80;;;;;;5042983;28;20545;-70
2022/05/16 07:58:22;;;;;;;9.10;2.67;;;21.40;70.60;;;;;;5013005;28;20075;-70
2022/05/16 08:00:50;;;;;;;7.43;2.47;;;21.40;70.90;;;;;;5018681;28;20049;-70
2022/05/16 08:03:18;;;;;;;7.80;2.20;;;21.50;70.80;;;;;;5024751;28;20288;-70
2022/05/16 08:05:44;;;;;;;11.55;3.25;;;21.70;69.90;;;;;;5022569;28;21374;-71
2022/05/16 08:10:57;;;;;;;8.50;2.20;;;22.30;68.00;;;;;;5043618;28;20155;-71
2022/05/16 08:13:24;;;;;;;8.80;2.47;;;22.70;66.40;;;;;;5023560;28;20046;-70
2022/05/16 08:15:50;;;;;;;8.75;2.53;;;22.90;64.70;;;;;;5023986;28;20037;-70
2022/05/16 08:18:15;;;;;;;8.18;2.22;;;23.20;64.70;;;;;;5026633;28;20033;-70
2022/05/16 08:20:43;;;;;;;7.38;2.38;;;23.10;64.50;;;;;;5025991;28;20041;-70
2022/05/16 08:23:11;;;;;;;7.40;2.13;;;23.30;64.30;;;;;;5010657;28;20110;-70
2022/05/16 08:25:37;;;;;;;7.63;2.13;;;23.90;66.70;;;;;;5024728;28;20162;-70
2022/05/16 08:28:03;;;;;;;8.95;2.90;;;24.50;62.80;;;;;;5024146;28;20132;-70
2022/05/16 08:30:29;;;;;;;7.63;2.50;;;25.00;63.00;;;;;;5010601;28;20055;-71
2022/05/16 08:32:57;;;;;;;8.13;2.28;;;25.20;61.20;;;;;;5027036;28;20054;-71
2022/05/16 08:35:23;;;;;;;5.88;2.17;;;25.50;59.70;;;;;;5000752;28;20559;-71
2022/05/16 08:40:55;;;;;;;6.60;2.22;;;25.80;59.20;;;;;;5015278;28;20047;-71
2022/05/16 08:43:37;;;;;;;9.02;2.25;;;25.80;54.80;;;;;;5031227;28;20769;-71
2022/05/16 08:46:37;;;;;;;9.65;2.25;;;25.80;56.80;;;;;;5015952;28;20489;-71
2022/05/16 08:49:35;;;;;;;7.88;2.20;;;25.90;56.60;;;;;;5036724;28;20448;-71
2022/05/16 08:52:20;;;;;;;6.60;2.25;;;26.30;56.70;;;;;;5042323;28;20112;-71
2022/05/16 08:54:57;;;;;;;7.88;2.00;;;26.60;55.40;;;;;;5012806;28;20146;-71
2022/05/16 08:58:09;;;;;;;8.95;2.00;;;26.80;56.00;;;;;;5026700;28;20053;-71
2022/05/16 09:00:52;;;;;;;7.93;2.30;;;27.00;54.20;;;;;;4995148;28;20092;-71
2022/05/16 09:03:24;;;;;;;7.05;2.03;;;26.90;53.60;;;;;;5043573;28;20036;-70
2022/05/16 09:05:57;;;;;;;8.98;2.17;;;27.20;54.40;;;;;;5023426;28;20444;-70
2022/05/16 09:08:51;;;;;;;9.80;2.50;;;27.60;52.60;;;;;;5045927;28;20037;-71
2022/05/16 09:11:26;;;;;;;4.95;2.17;;;27.70;53.20;;;;;;5043598;28;20042;-70
2022/05/16 09:13:57;;;;;;;6.00;2.35;;;27.60;52.50;;;;;;5037397;28;20166;-71
2022/05/16 09:16:42;;;;;;;8.15;2.30;;;27.50;51.40;;;;;;5042499;28;20073;-70
2022/05/16 09:19:26;;;;;;;7.68;2.55;;;27.60;51.70;;;;;;5040104;28;20159;-71
2022/05/16 09:22:16;;;;;;;8.60;2.53;;;27.70;51.80;;;;;;5044367;28;20033;-71
2022/05/16 09:24:53;;;;;;;7.82;2.40;;;27.80;51.40;;;;;;5044865;28;20095;-71
2022/05/16 09:30:16;;;;;;;11.68;2.85;;;27.90;51.90;;;;;;5019843;28;20050;-71
2022/05/16 09:32:48;;;;;;;6.75;2.33;;;28.10;52.00;;;;;;5039035;28;20052;-72
2022/05/16 09:35:36;;;;;;;8.75;2.92;;;28.20;51.40;;;;;;5020301;28;20056;-72
2022/05/16 09:38:02;;;;;;;8.80;2.47;;;28.30;51.00;;;;;;5008684;28;20068;-71
2022/05/16 09:40:37;;;;;;;6.85;2.10;;;28.40;51.50;;;;;;5040122;28;20045;-71
2022/05/16 09:43:19;;;;;;;9.25;2.08;;;28.60;49.50;;;;;;5019528;28;20124;-71
2022/05/16 09:45:53;;;;;;;9.85;2.40;;;28.60;48.80;;;;;;5044242;28;20045;-71
2022/05/16 09:48:23;;;;;;;8.75;2.58;;;28.70;48.90;;;;;;5010453;28;20107;-71
2022/05/16 09:50:59;;;;;;;7.28;2.20;;;28.80;48.60;;;;;;5025504;28;20045;-70
2022/05/16 09:53:44;;;;;;;7.28;2.45;;;28.90;47.40;;;;;;5047358;28;20025;-71
2022/05/16 09:56:30;;;;;;;9.23;2.72;;;29.00;48.30;;;;;;5031654;28;20054;-70
2022/05/16 09:59:02;;;;;;;4.80;1.75;;;28.80;47.00;;;;;;5012860;28;20524;-75
2022/05/16 10:01:38;;;;;;;8.45;3.05;;;28.70;48.70;;;;;;5029605;28;20054;-74
2022/05/16 10:04:19;;;;;;;6.68;2.05;;;28.70;48.10;;;;;;5027996;28;20120;-75
2022/05/16 10:07:03;;;;;;;7.95;2.33;;;28.70;48.00;;;;;;5028308;28;20485;-74
2022/05/16 10:09:33;;;;;;;6.78;2.40;;;28.70;49.20;;;;;;5027862;28;20045;-76
2022/05/16 10:12:00;;;;;;;7.57;2.40;;;28.70;48.10;;;;;;5016168;28;20056;-76
2022/05/16 10:14:26;;;;;;;7.20;2.10;;;28.60;48.70;;;;;;5011055;28;20057;-74
2022/05/16 10:16:53;;;;;;;9.63;2.35;;;28.60;47.40;;;;;;5009098;28;20045;-73
2022/05/16 10:19:22;;;;;;;8.23;2.38;;;28.60;47.40;;;;;;5026332;28;20046;-74
2022/05/16 10:21:55;;;;;;;6.72;2.30;;;28.40;46.80;;;;;;5025298;28;20100;-74
2022/05/16 10:24:23;;;;;;;9.65;2.40;;;28.00;47.60;;;;;;5025055;28;20131;-74
2022/05/16 10:26:51;;;;;;;8.05;2.20;;;27.80;49.30;;;;;;5028828;28;20134;-74
2022/05/16 10:29:23;;;;;;;6.63;2.50;;;27.70;49.20;;;;;;5021396;28;20155;-70
2022/05/16 10:34:56;;;;;;;6.85;2.30;;;27.30;49.40;;;;;;5019243;28;20232;-71
2022/05/16 10:37:23;;;;;;;6.88;2.60;;;27.00;49.60;;;;;;5037792;28;20115;-71
2022/05/16 10:39:57;;;;;;;9.60;2.45;;;26.70;50.10;;;;;;5015598;28;20049;-72
2022/05/16 10:42:54;;;;;;;6.75;2.30;;;26.60;51.30;;;;;;5014608;28;20501;-77
2022/05/16 10:45:23;;;;;;;8.38;2.30;;;26.50;53.00;;;;;;5031484;28;20064;-71
2022/05/16 10:48:05;;;;;;;6.82;2.47;;;26.40;52.80;;;;;;5005635;28;20096;-71
2022/05/16 10:50:42;;;;;;;11.65;2.40;;;26.20;53.50;;;;;;5013530;28;20107;-69
2022/05/16 10:53:13;;;;;;;8.77;2.40;;;26.10;53.20;;;;;;5046370;28;20079;-70
2022/05/16 10:56:01;;;;;;;9.93;2.65;;;25.90;54.60;;;;;;5028817;28;20045;-70
2022/05/16 10:58:38;;;;;;;7.43;2.78;;;25.90;55.30;;;;;;5028614;28;20089;-71
2022/05/16 11:01:12;;;;;;;9.55;2.67;;;25.70;57.20;;;;;;5029582;28;20059;-71
2022/05/16 11:03:50;;;;;;;7.05;2.58;;;25.50;59.30;;;;;;5045136;28;20037;-71
2022/05/16 11:06:35;;;;;;;8.65;3.33;;;25.30;60.60;;;;;;5045089;28;20060;-71
2022/05/16 11:09:18;;;;;;;8.70;2.83;;;25.10;61.60;;;;;;4995254;28;20049;-70
2022/05/16 11:12:02;;;;;;;9.70;2.95;;;24.90;63.20;;;;;;5029456;28;20064;-70
2022/05/16 11:14:38;;;;;;;8.35;3.33;;;24.60;63.20;;;;;;5011564;28;20060;-71
2022/05/16 11:17:30;;;;;;;7.32;2.63;;;24.40;65.80;;;;;;5016735;28;20136;-70
2022/05/16 11:20:06;;;;;;;9.80;3.08;;;24.20;68.00;;;;;;5041608;28;20040;-69
2022/05/16 11:22:39;;;;;;;11.15;3.33;;;24.20;70.40;;;;;;5007779;28;20043;-69
2022/05/16 11:25:10;;;;;;;8.98;3.30;;;24.00;69.50;;;;;;5015653;28;20052;-71
2022/05/16 11:28:01;;;;;;;8.07;2.95;;;24.00;71.00;;;;;;5021938;28;20058;-70
2022/05/16 11:30:46;;;;;;;9.35;3.65;;;23.90;71.60;;;;;;5039811;28;20049;-70
2022/05/16 11:33:40;;;;;;;13.25;4.03;;;23.90;73.90;;;;;;5027479;28;20461;-70
2022/05/16 11:36:35;;;;;;;13.48;3.80;;;23.90;75.40;;;;;;5020771;28;20045;-70
2022/05/16 11:39:30;;;;;;;8.18;3.05;;;24.00;77.00;;;;;;5011905;28;20040;-70
2022/05/16 11:42:27;;;;;;;9.80;3.25;;;24.10;78.70;;;;;;5005692;28;20115;-70
2022/05/16 11:45:11;;;;;;;7.18;3.17;;;24.10;75.80;;;;;;5015607;28;20358;-70
2022/05/16 11:47:43;;;;;;;;;;;24.20;77.00;;;;;;5029258;28;20041;-70
2022/05/16 11:50:25;;;;;;;7.32;2.42;;;24.20;77.20;;;;;;5042995;28;20018;-70
2022/05/16 11:53:26;;;;;;;9.27;2.55;;;24.40;75.50;;;;;;5047413;28;20064;-71
2022/05/16 12:01:33;;;;;;;5.80;2.10;;;24.50;72.20;;;;;;5031807;28;20130;-70
2022/05/16 12:04:13;;;;;;;6.90;1.80;;;24.50;72.10;;;;;;5035284;28;20053;-69
2022/05/16 12:06:45;;;;;;;6.50;1.90;;;24.60;71.80;;;;;;5024868;28;20140;-70
2022/05/16 12:09:20;;;;;;;4.78;1.83;;;24.50;71.90;;;;;;5041944;28;20533;-70
2022/05/16 12:11:57;;;;;;;4.38;2.05;;;24.60;71.50;;;;;;5041881;28;20056;-69
2022/05/16 12:14:33;;;;;;;5.53;2.03;;;24.60;70.20;;;;;;5021878;28;20213;-69
2022/05/16 12:17:19;;;;;;;6.18;2.30;;;24.60;69.70;;;;;;5022065;28;20397;-69
2022/05/16 12:19:48;;;;;;;5.90;2.28;;;24.50;69.90;;;;;;5001877;28;20056;-69
2022/05/16 12:22:34;;;;;;;7.10;2.15;;;24.50;71.00;;;;;;5041562;28;20064;-69
2022/05/16 12:25:10;;;;;;;4.68;1.98;;;24.60;71.10;;;;;;5022499;28;20120;-69
2022/05/16 12:27:46;;;;;;;7.88;2.55;;;24.80;71.40;;;;;;5029825;28;20068;-69
2022/05/16 12:30:14;;;;;;;4.57;2.28;;;25.10;70.00;;;;;;5025587;28;20099;-70
2022/05/16 12:32:52;;;;;;;6.47;2.42;;;25.40;70.70;;;;;;5029158;28;20053;-70
2022/05/16 12:35:43;;;;;;;5.20;1.92;;;25.60;70.20;;;;;;5041256;28;20069;-70
2022/05/16 12:38:11;;;;;;;4.85;2.20;;;25.90;67.20;;;;;;5002528;28;20058;-69
2022/05/16 12:40:58;;;;;;;6.07;2.33;;;26.10;68.50;;;;;;5025719;28;20109;-70
2022/05/16 12:43:31;;;;;;;7.75;2.13;;;26.50;66.30;;;;;;5031368;28;20053;-70
2022/05/16 12:46:26;;;;;;;6.20;1.90;;;26.60;64.40;;;;;;5042731;28;20059;-70
2022/05/16 12:48:51;;;;;;;4.13;1.60;;;26.60;62.80;;;;;;5026991;28;20053;-71
2022/05/16 12:51:44;;;;;;;10.05;2.35;;;26.50;64.50;;;;;;5027484;28;20503;-70
2022/05/16 12:54:44;;;;;;;5.25;1.92;;;26.50;62.70;;;;;;5036850;28;20044;-70
2022/05/16 12:57:33;;;;;;;6.85;2.20;;;26.50;62.20;;;;;;5026789;28;20412;-71
2022/05/16 13:00:12;;;;;;;5.25;1.80;;;26.40;63.00;;;;;;5024381;28;20056;-71
2022/05/16 13:03:08;;;;;;;3.92;1.75;;;26.30;63.80;;;;;;5043081;28;20121;-69
2022/05/16 13:05:45;;;;;;;3.92;2.10;;;26.30;64.80;;;;;;5040104;28;20094;-68
2022/05/16 13:08:43;;;;;;;5.95;2.17;;;26.20;64.60;;;;;;5042110;28;20120;-69
2022/05/16 13:11:34;;;;;;;6.93;2.67;;;26.30;63.80;;;;;;5014193;28;20057;-68
2022/05/16 13:14:12;;;;;;;7.13;2.10;;;26.30;63.70;;;;;;5018947;28;20102;-68
2022/05/16 13:16:49;;;;;;;7.15;2.13;;;26.20;62.90;;;;;;5039121;28;20069;-69
2022/05/16 13:19:17;;;;;;;4.10;2.25;;;26.20;63.50;;;;;;5021317;28;20082;-68
2022/05/16 13:21:51;;;;;;;6.55;2.78;;;26.20;63.80;;;;;;5029810;28;20163;-68
2022/05/16 13:24:21;;;;;;;8.52;3.25;;;26.20;63.40;;;;;;5035402;28;20638;-68
2022/05/16 13:29:36;;;;;;;6.25;3.53;;;26.00;63.40;;;;;;5044896;28;20091;-69
2022/05/16 13:32:17;;;;;;;9.70;3.90;;;26.10;64.60;;;;;;5044651;28;20037;-71
2022/05/16 13:34:54;;;;;;;6.93;3.80;;;26.10;64.30;;;;;;5021529;28;20037;-69
2022/05/16 13:37:28;;;;;;;10.18;4.85;;;26.10;64.70;;;;;;5042645;28;20045;-69
2022/05/16 13:39:57;;;;;;;7.10;3.72;;;26.10;65.00;;;;;;5042165;28;20140;-69
2022/05/16 13:42:23;;;;;;;9.18;4.85;;;26.20;64.80;;;;;;5044691;28;20042;-69
2022/05/16 13:44:55;;;;;;;11.18;5.30;;;26.40;65.60;;;;;;5039694;28;20048;-69
2022/05/16 13:47:23;;;;;;;7.70;4.72;;;26.80;65.30;;;;;;5042065;28;20109;-69